Independence — KBGR — position and weather

sailwx.info

Track history (hours):
 
Tides and Currents Weather Stations Pressure Air Temp Water Temp Dewpoint Dewpoint Depression Visibility Wind Speed Wind Dir Waves Ship Positions

Independence

Owner: MAR INCORPORATED, VENTURA, CA. More information available from US FCC via Universal Licensing System and Coast Guard Vessel Documentation Center.

Last reported at 2018-Jun-21 20:15 UTC. Time now 2018-Jun-21 23:51 UTC.
Position N 34°09' W 119°13'.

Length 61 m; draft 4 m.

Type: Ship. MMSI: 338955000.

Date/timePositionNaut miles runAvg speedWind from/ knotsBaromVisibWave heightAir tempDewpointWater temp
2018-Jun-21 20:15N 34°09' W 119°13'0 0.0
2018-Jun-21 13:09N 34°09' W 119°13'0 0.0
2018-Jun-21 11:27N 34°09' W 119°13'0 0.0
2018-Jun-21 09:30N 34°09' W 119°13'0 0.0
2018-Jun-21 04:15N 34°09' W 119°13'0 0.0
2018-Jun-21 04:00N 34°09' W 119°13'0 0.0
2018-Jun-21 00:21N 34°09' W 119°13'0 0.0
2018-Jun-20 23:33N 34°09' W 119°13'0 0.0
2018-Jun-20 23:12N 34°09' W 119°13'0 0.0
2018-Jun-20 22:45N 34°09' W 119°13'0 0.0
2018-Jun-20 22:31N 34°09' W 119°13'4 7.3
2018-Jun-20 21:58N 34°09' W 119°17'4 7.2
2018-Jun-20 21:29N 34°09' W 119°22'0 0.6
2018-Jun-20 21:00N 34°09' W 119°21'0 0.0
2018-Jun-20 20:30N 34°09' W 119°21'0 0.0
2018-Jun-20 20:00N 34°09' W 119°21'0 0.0
2018-Jun-20 19:30N 34°09' W 119°21'0 0.0
2018-Jun-20 19:00N 34°09' W 119°21'0 0.0
2018-Jun-20 18:29N 34°09' W 119°21'0 0.0
2018-Jun-20 17:57N 34°09' W 119°21'0 0.0
2018-Jun-20 17:28N 34°09' W 119°21'0 0.0
2018-Jun-20 16:57N 34°09' W 119°21'0 0.0
2018-Jun-20 16:30N 34°09' W 119°21'0 0.0
2018-Jun-20 15:52N 34°09' W 119°21'0 0.0
2018-Jun-20 15:27N 34°09' W 119°21'0 0.0
2018-Jun-20 14:59N 34°09' W 119°21'0 0.0
2018-Jun-20 14:30N 34°09' W 119°21'611.3
2018-Jun-20 14:00N 34°08' W 119°15'2 3.2
2018-Jun-20 13:26N 34°09' W 119°13'0 0.0
2018-Jun-20 12:57N 34°09' W 119°13'0 0.0
2018-Jun-20 12:27N 34°09' W 119°13'0 0.0
2018-Jun-20 11:58N 34°09' W 119°13'0 0.0
2018-Jun-20 09:06N 34°09' W 119°13'0 0.0
2018-Jun-20 05:15N 34°09' W 119°13'0 0.0
2018-Jun-20 02:42N 34°09' W 119°13'0 0.0
2018-Jun-20 02:18N 34°09' W 119°13'0 0.0
2018-Jun-20 01:57N 34°09' W 119°13'0 0.0
2018-Jun-20 01:27N 34°09' W 119°13'0 0.0
2018-Jun-20 00:15N 34°09' W 119°13'0 0.0
2018-Jun-19 23:57N 34°09' W 119°13'0 0.0
2018-Jun-19 22:33N 34°09' W 119°13'0 0.0
2018-Jun-19 22:18N 34°09' W 119°13'0 0.0
2018-Jun-19 21:54N 34°09' W 119°13'1 1.9
2018-Jun-19 21:30N 34°09' W 119°13'611.9
2018-Jun-19 21:00N 34°09' W 119°20'1 1.7
2018-Jun-19 20:30N 34°09' W 119°21'0 0.1
2018-Jun-19 20:00N 34°09' W 119°21'0 0.0
2018-Jun-19 19:27N 34°09' W 119°21'1 2.2
2018-Jun-19 18:58N 34°08' W 119°22'0 0.3
2018-Jun-19 18:29N 34°08' W 119°22'0 0.0
2018-Jun-19 18:00N 34°08' W 119°22'0 0.5
2018-Jun-19 17:30N 34°08' W 119°22'1 2.2
2018-Jun-19 17:00N 34°09' W 119°21'0 0.0
2018-Jun-19 16:29N 34°09' W 119°21'1 2.6
2018-Jun-19 15:59N 34°08' W 119°22'0 0.0
2018-Jun-19 15:25N 34°08' W 119°22'0 0.0
2018-Jun-19 15:00N 34°08' W 119°22'0 0.0
2018-Jun-19 14:29N 34°08' W 119°22'0 0.0
2018-Jun-19 13:59N 34°08' W 119°22'0 0.1
2018-Jun-19 13:30N 34°08' W 119°22'612.0
2018-Jun-19 13:00N 34°08' W 119°15'2 4.3
2018-Jun-19 12:30N 34°09' W 119°13'0 0.0
2018-Jun-19 11:59N 34°09' W 119°13'0 0.0
2018-Jun-19 01:34N 34°09' W 119°13'0 0.0
2018-Jun-18 19:31N 34°09' W 119°13'0 0.1
2018-Jun-18 19:25N 34°09' W 119°13'0 0.0
2018-Jun-18 18:58N 34°09' W 119°13'0 0.0
2018-Jun-17 18:22N 34°09' W 119°13'0 0.0
2018-Jun-17 16:13N 34°09' W 119°13'0 0.0
2018-Jun-17 09:58N 34°09' W 119°13'0 0.0
2018-Jun-17 09:28N 34°09' W 119°13'0 0.0
2018-Jun-16 15:46N 34°09' W 119°13'0 0.0
2018-Jun-16 15:28N 34°09' W 119°13'0 0.0
2018-Jun-16 14:52N 34°09' W 119°13'0 0.0
2018-Jun-16 14:22N 34°09' W 119°13'0 0.0
2018-Jun-16 13:52N 34°09' W 119°13'0 0.0
2018-Jun-16 13:04N 34°09' W 119°13'0 0.0
2018-Jun-16 12:55N 34°09' W 119°13'0 0.0
2018-Jun-16 12:28N 34°09' W 119°13'0 0.0
2018-Jun-16 11:22N 34°09' W 119°13'0 0.0
2018-Jun-16 10:59N 34°09' W 119°13'3 6.9
2018-Jun-16 10:30N 34°06' W 119°13'5 9.1
2018-Jun-16 09:56N 34°01' W 119°13'3 8.2
2018-Jun-16 09:30N 33°57' W 119°12'4 8.0
2018-Jun-16 09:00N 33°54' W 119°09'4 8.0
2018-Jun-16 08:29N 33°51' W 119°05'4 8.2
2018-Jun-16 07:57N 33°47' W 119°02'4 8.8
2018-Jun-16 07:30N 33°44' W 118°59'4 8.8
2018-Jun-16 07:00N 33°41' W 118°56'5 8.7
2018-Jun-16 06:29N 33°37' W 118°53'4 9.1
2018-Jun-16 06:00N 33°34' W 118°49'4 8.9
2018-Jun-16 05:31N 33°31' W 118°46'4 8.8
2018-Jun-16 05:00N 33°27' W 118°43'5 9.2
2018-Jun-16 04:29N 33°23' W 118°39'5 9.2
2018-Jun-16 03:59N 33°20' W 118°36'5 9.0
2018-Jun-16 03:24N 33°16' W 118°32'4 9.1
2018-Jun-16 03:00N 33°13' W 118°29'3 6.3
2018-Jun-16 02:29N 33°10' W 118°27'0 0.0
2018-Jun-16 02:00N 33°10' W 118°27'0 0.0
2018-Jun-16 01:28N 33°10' W 118°27'1 1.7
2018-Jun-16 00:54N 33°10' W 118°25'4 9.7
2018-Jun-16 00:29N 33°10' W 118°21'510.4
2018-Jun-15 23:59N 33°10' W 118°14'2 3.1
2018-Jun-15 23:30N 33°10' W 118°13'0 0.0
2018-Jun-15 22:59N 33°10' W 118°13'0 0.0
2018-Jun-15 22:30N 33°10' W 118°13'2 3.2
2018-Jun-15 21:54N 33°11' W 118°15'4 9.8
2018-Jun-15 21:31N 33°11' W 118°20'611.6
2018-Jun-15 21:00N 33°12' W 118°26'510.2
2018-Jun-15 20:30N 33°13' W 118°32'5 9.8
2018-Jun-15 20:00N 33°14' W 118°38'1 2.3
2018-Jun-15 19:24N 33°13' W 118°37'710.7
2018-Jun-15 18:46N 33°13' W 118°29'310.0
2018-Jun-15 18:30N 33°12' W 118°26'1 2.1
2018-Jun-15 18:00N 33°12' W 118°25'0 0.0
2018-Jun-15 17:25N 33°12' W 118°25'0 0.0
2018-Jun-15 16:59N 33°12' W 118°25'2 4.9
2018-Jun-15 16:29N 33°13' W 118°28'511.1
2018-Jun-15 16:00N 33°14' W 118°34'5 9.8
2018-Jun-15 15:30N 33°15' W 118°40'0 0.6
2018-Jun-15 14:57N 33°15' W 118°40'0 0.0
2018-Jun-15 14:27N 33°14' W 118°40'0 0.0
2018-Jun-15 13:57N 33°15' W 118°40'0 0.0
2018-Jun-15 13:30N 33°14' W 118°40'1 1.4
2018-Jun-15 12:56N 33°14' W 118°39'1 2.2
2018-Jun-15 12:31N 33°15' W 118°40'2 3.3
2018-Jun-15 12:00N 33°14' W 118°38'2 4.4
2018-Jun-15 11:29N 33°14' W 118°35'2 4.7
2018-Jun-15 10:58N 33°13' W 118°33'1 2.2
2018-Jun-15 10:29N 33°13' W 118°32'1 2.6
2018-Jun-15 10:00N 33°13' W 118°30'2 4.3
2018-Jun-15 09:30N 33°13' W 118°27'2 3.8
2018-Jun-15 09:00N 33°13' W 118°25'3 5.1
2018-Jun-15 08:29N 33°13' W 118°28'3 4.9
2018-Jun-15 07:49N 33°13' W 118°32'2 4.7
2018-Jun-15 07:30N 33°13' W 118°34'2 4.8
2018-Jun-15 07:00N 33°13' W 118°37'3 5.0
2018-Jun-15 06:28N 33°14' W 118°40'2 4.8
2018-Jun-15 06:00N 33°15' W 118°42'3 4.1
2018-Jun-15 05:14N 33°14' W 118°39'2 4.4
2018-Jun-15 04:46N 33°14' W 118°37'1 4.3
2018-Jun-15 04:30N 33°13' W 118°35'2 4.2
2018-Jun-15 04:00N 33°12' W 118°33'3 4.6
2018-Jun-15 03:27N 33°11' W 118°30'2 5.1
2018-Jun-15 03:00N 33°10' W 118°28'2 4.2
2018-Jun-15 02:30N 33°09' W 118°26'2 4.2
2018-Jun-15 02:00N 33°08' W 118°23'2 4.1
2018-Jun-15 01:30N 33°08' W 118°21'0 0.7
2018-Jun-15 01:00N 33°08' W 118°21'1 1.6
2018-Jun-15 00:30N 33°08' W 118°20'0 0.8
2018-Jun-15 00:00N 33°08' W 118°20'4 7.6
2018-Jun-14 23:30N 33°10' W 118°24'611.7
2018-Jun-14 23:00N 33°12' W 118°30'5 9.3
2018-Jun-14 22:31N 33°14' W 118°35'3 6.4
2018-Jun-14 22:01N 33°15' W 118°39'4 7.2
2018-Jun-14 21:28N 33°13' W 118°35'610.7
2018-Jun-14 20:56N 33°11' W 118°29'4 8.1
2018-Jun-14 20:30N 33°11' W 118°24'1 2.0
2018-Jun-14 19:59N 33°10' W 118°23'0 0.0
2018-Jun-14 19:30N 33°10' W 118°23'0 0.0
2018-Jun-14 19:01N 33°10' W 118°23'1 2.7
2018-Jun-14 18:29N 33°11' W 118°25'3 6.1
2018-Jun-14 18:00N 33°12' W 118°28'510.5
2018-Jun-14 17:30N 33°14' W 118°34'2 4.0
2018-Jun-14 17:01N 33°14' W 118°36'2 5.0
2018-Jun-14 16:30N 33°13' W 118°33'4 7.6
2018-Jun-14 16:00N 33°12' W 118°29'0 0.9
2018-Jun-14 15:30N 33°12' W 118°29'0 0.0
2018-Jun-14 15:00N 33°12' W 118°29'0 0.0
2018-Jun-14 14:30N 33°12' W 118°29'0 0.0
2018-Jun-14 14:00N 33°12' W 118°29'0 0.0
2018-Jun-14 13:31N 33°12' W 118°29'1 1.7
2018-Jun-14 13:00N 33°12' W 118°30'2 4.0
2018-Jun-14 12:29N 33°12' W 118°32'2 5.0
2018-Jun-14 12:00N 33°11' W 118°29'2 4.6
2018-Jun-14 11:30N 33°11' W 118°27'2 4.4
2018-Jun-14 11:00N 33°11' W 118°24'2 4.3
2018-Jun-14 10:29N 33°11' W 118°21'1 2.1
2018-Jun-14 10:00N 33°11' W 118°22'3 5.3
2018-Jun-14 09:30N 33°11' W 118°25'3 5.2
2018-Jun-14 09:00N 33°11' W 118°29'2 4.8
2018-Jun-14 08:30N 33°11' W 118°31'2 4.7
2018-Jun-14 08:00N 33°11' W 118°34'2 4.6
2018-Jun-14 07:30N 33°11' W 118°37'2 4.5
2018-Jun-14 07:00N 33°11' W 118°40'1 2.2
2018-Jun-14 06:30N 33°12' W 118°41'3 5.1
2018-Jun-14 06:00N 33°12' W 118°38'2 4.6
2018-Jun-14 05:30N 33°12' W 118°35'2 4.5
2018-Jun-14 05:00N 33°12' W 118°33'2 3.0
2018-Jun-14 04:30N 33°12' W 118°31'0 0.0
2018-Jun-14 04:00N 33°12' W 118°31'0 0.0
2018-Jun-14 03:30N 33°12' W 118°31'0 0.0
2018-Jun-14 03:00N 33°12' W 118°31'0 0.0
2018-Jun-14 02:31N 33°12' W 118°31'4 8.3
2018-Jun-14 02:00N 33°13' W 118°26'2 4.5
2018-Jun-14 01:30N 33°13' W 118°23'0 0.0
2018-Jun-14 01:00N 33°13' W 118°23'4 7.8
2018-Jun-14 00:30N 33°16' W 118°20'4 7.5
2018-Jun-14 00:00N 33°19' W 118°18'0 0.0
2018-Jun-13 23:30N 33°19' W 118°18'0 0.0
2018-Jun-13 22:59N 33°19' W 118°18'4 8.2
2018-Jun-13 22:31N 33°15' W 118°18'4 8.4
2018-Jun-13 22:00N 33°11' W 118°20'0 0.0
2018-Jun-13 21:30N 33°11' W 118°20'0 0.0
2018-Jun-13 21:00N 33°11' W 118°20'0 0.0
2018-Jun-13 20:30N 33°11' W 118°20'0 0.0
2018-Jun-13 20:00N 33°11' W 118°20'0 0.7
2018-Jun-13 19:30N 33°11' W 118°19'0 0.1
2018-Jun-13 19:00N 33°11' W 118°19'0 0.0
2018-Jun-13 18:30N 33°11' W 118°19'1 2.5
2018-Jun-13 18:00N 33°10' W 118°18'0 0.5
2018-Jun-13 17:30N 33°10' W 118°18'1 0.8
2018-Jun-13 16:37N 33°10' W 118°17'1 6.5
2018-Jun-13 16:26N 33°10' W 118°15'3 5.8
2018-Jun-13 15:59N 33°09' W 118°12'1 1.7
2018-Jun-13 15:31N 33°09' W 118°11'0 0.0
2018-Jun-13 15:01N 33°09' W 118°11'0 0.0
2018-Jun-13 14:31N 33°09' W 118°11'0 0.0
2018-Jun-13 14:00N 33°09' W 118°11'0 0.0
2018-Jun-13 13:30N 33°09' W 118°11'0 0.8
2018-Jun-13 13:00N 33°10' W 118°11'2 4.3
2018-Jun-13 12:31N 33°12' W 118°12'2 4.7
2018-Jun-13 12:00N 33°12' W 118°14'2 4.6
2018-Jun-13 11:30N 33°13' W 118°17'2 4.7
2018-Jun-13 11:00N 33°14' W 118°19'2 4.8
2018-Jun-13 10:30N 33°15' W 118°22'3 6.3
2018-Jun-13 09:59N 33°16' W 118°26'3 6.8
2018-Jun-13 09:31N 33°17' W 118°29'3 6.7
2018-Jun-13 09:00N 33°19' W 118°33'3 6.4
2018-Jun-13 08:30N 33°20' W 118°36'3 6.6
2018-Jun-13 08:00N 33°23' W 118°39'4 7.3
2018-Jun-13 07:29N 33°26' W 118°42'4 8.7
2018-Jun-13 07:00N 33°29' W 118°45'611.7
2018-Jun-13 06:30N 33°34' W 118°49'611.8
2018-Jun-13 05:59N 33°39' W 118°54'612.0
2018-Jun-13 05:30N 33°43' W 118°58'612.0
2018-Jun-13 05:00N 33°48' W 119°03'611.9
2018-Jun-13 04:31N 33°52' W 119°07'612.3
2018-Jun-13 04:00N 33°57' W 119°12'712.5
2018-Jun-13 03:27N 34°04' W 119°13'510.4
2018-Jun-13 03:00N 34°09' W 119°13'0 0.9
2018-Jun-13 02:30N 34°09' W 119°13'0 0.0
2018-Jun-13 01:58N 34°09' W 119°13'0 0.0
2018-Jun-13 01:28N 34°09' W 119°13'0 0.0
2018-Jun-13 00:58N 34°09' W 119°13'0 0.0
2018-Jun-13 00:25N 34°09' W 119°13'0 0.0
2018-Jun-12 23:58N 34°09' W 119°13'0 0.0
2018-Jun-12 23:25N 34°09' W 119°13'0 0.0
2018-Jun-12 22:58N 34°09' W 119°13'0 0.0
2018-Jun-12 22:28N 34°09' W 119°13'0 0.0
2018-Jun-12 21:52N 34°09' W 119°13'0 0.0
2018-Jun-12 21:28N 34°09' W 119°13'0 0.0
2018-Jun-12 20:58N 34°09' W 119°13'0 0.0
2018-Jun-12 20:22N 34°09' W 119°13'0 0.0
2018-Jun-12 19:58N 34°09' W 119°13'0 0.0
2018-Jun-12 19:25N 34°09' W 119°13'0 0.0
2018-Jun-12 18:58N 34°09' W 119°13'0 0.0
2018-Jun-12 18:04N 34°09' W 119°13'0 0.0
2018-Jun-12 17:43N 34°09' W 119°13'0 0.0
2018-Jun-12 17:28N 34°09' W 119°13'0 0.0
2018-Jun-12 16:58N 34°09' W 119°13'0 0.0
2018-Jun-12 14:46N 34°09' W 119°13'0 0.0
2018-Jun-12 13:13N 34°09' W 119°13'0 0.0
2018-Jun-12 12:43N 34°09' W 119°13'0 0.0
2018-Jun-12 11:55N 34°09' W 119°13'0 0.0
2018-Jun-12 11:04N 34°09' W 119°13'0 0.0
2018-Jun-12 10:46N 34°09' W 119°13'0 0.0
2018-Jun-12 10:28N 34°09' W 119°13'0 0.0
2018-Jun-12 09:52N 34°09' W 119°13'0 0.0
2018-Jun-12 08:43N 34°09' W 119°13'0 0.0
2018-Jun-12 08:28N 34°09' W 119°13'0 0.0
2018-Jun-12 07:04N 34°09' W 119°13'0 0.0
2018-Jun-12 06:58N 34°09' W 119°13'0 0.0
2018-Jun-12 06:28N 34°09' W 119°13'0 0.0
2018-Jun-12 05:52N 34°09' W 119°13'0 0.0
2018-Jun-12 05:28N 34°09' W 119°13'0 0.0
2018-Jun-12 04:52N 34°09' W 119°13'0 0.0
2018-Jun-12 03:19N 34°09' W 119°13'0 0.0
2018-Jun-12 00:19N 34°09' W 119°13'0 0.0
2018-Jun-11 23:58N 34°09' W 119°13'0 0.0
2018-Jun-11 23:28N 34°09' W 119°13'0 0.0
2018-Jun-11 22:58N 34°09' W 119°13'0 0.0
2018-Jun-11 22:28N 34°09' W 119°13'0 0.0
2018-Jun-11 21:58N 34°09' W 119°13'  
Track history (hours):
 
Tides and Currents Weather Stations Pressure Air Temp Water Temp Dewpoint Dewpoint Depression Visibility Wind Speed Wind Dir Waves Ship Positions

Independence

Owner: MAR INCORPORATED, VENTURA, CA. More information available from US FCC via Universal Licensing System and Coast Guard Vessel Documentation Center.

Last reported at 2018-Jun-21 20:15 UTC. Time now 2018-Jun-21 23:51 UTC.
Position N 34°09' W 119°13'.

Length 61 m; draft 4 m.

Type: Ship. MMSI: 338955000.

Date/timePositionNaut miles runAvg speedWind from/ knotsBaromVisibWave heightAir tempDewpointWater temp
2018-Jun-21 20:15N 34°09' W 119°13'0 0.0
2018-Jun-21 13:09N 34°09' W 119°13'0 0.0
2018-Jun-21 11:27N 34°09' W 119°13'0 0.0
2018-Jun-21 09:30N 34°09' W 119°13'0 0.0
2018-Jun-21 04:15N 34°09' W 119°13'0 0.0
2018-Jun-21 04:00N 34°09' W 119°13'0 0.0
2018-Jun-21 00:21N 34°09' W 119°13'0 0.0
2018-Jun-20 23:33N 34°09' W 119°13'0 0.0
2018-Jun-20 23:12N 34°09' W 119°13'0 0.0
2018-Jun-20 22:45N 34°09' W 119°13'0 0.0
2018-Jun-20 22:31N 34°09' W 119°13'4 7.3
2018-Jun-20 21:58N 34°09' W 119°17'4 7.2
2018-Jun-20 21:29N 34°09' W 119°22'0 0.6
2018-Jun-20 21:00N 34°09' W 119°21'0 0.0
2018-Jun-20 20:30N 34°09' W 119°21'0 0.0
2018-Jun-20 20:00N 34°09' W 119°21'0 0.0
2018-Jun-20 19:30N 34°09' W 119°21'0 0.0
2018-Jun-20 19:00N 34°09' W 119°21'0 0.0
2018-Jun-20 18:29N 34°09' W 119°21'0 0.0
2018-Jun-20 17:57N 34°09' W 119°21'0 0.0
2018-Jun-20 17:28N 34°09' W 119°21'0 0.0
2018-Jun-20 16:57N 34°09' W 119°21'0 0.0
2018-Jun-20 16:30N 34°09' W 119°21'0 0.0
2018-Jun-20 15:52N 34°09' W 119°21'0 0.0
2018-Jun-20 15:27N 34°09' W 119°21'0 0.0
2018-Jun-20 14:59N 34°09' W 119°21'0 0.0
2018-Jun-20 14:30N 34°09' W 119°21'611.3
2018-Jun-20 14:00N 34°08' W 119°15'2 3.2
2018-Jun-20 13:26N 34°09' W 119°13'0 0.0
2018-Jun-20 12:57N 34°09' W 119°13'0 0.0
2018-Jun-20 12:27N 34°09' W 119°13'0 0.0
2018-Jun-20 11:58N 34°09' W 119°13'0 0.0
2018-Jun-20 09:06N 34°09' W 119°13'0 0.0
2018-Jun-20 05:15N 34°09' W 119°13'0 0.0
2018-Jun-20 02:42N 34°09' W 119°13'0 0.0
2018-Jun-20 02:18N 34°09' W 119°13'0 0.0
2018-Jun-20 01:57N 34°09' W 119°13'0 0.0
2018-Jun-20 01:27N 34°09' W 119°13'0 0.0
2018-Jun-20 00:15N 34°09' W 119°13'0 0.0
2018-Jun-19 23:57N 34°09' W 119°13'0 0.0
2018-Jun-19 22:33N 34°09' W 119°13'0 0.0
2018-Jun-19 22:18N 34°09' W 119°13'0 0.0
2018-Jun-19 21:54N 34°09' W 119°13'1 1.9
2018-Jun-19 21:30N 34°09' W 119°13'611.9
2018-Jun-19 21:00N 34°09' W 119°20'1 1.7
2018-Jun-19 20:30N 34°09' W 119°21'0 0.1
2018-Jun-19 20:00N 34°09' W 119°21'0 0.0
2018-Jun-19 19:27N 34°09' W 119°21'1 2.2
2018-Jun-19 18:58N 34°08' W 119°22'0 0.3
2018-Jun-19 18:29N 34°08' W 119°22'0 0.0
2018-Jun-19 18:00N 34°08' W 119°22'0 0.5
2018-Jun-19 17:30N 34°08' W 119°22'1 2.2
2018-Jun-19 17:00N 34°09' W 119°21'0 0.0
2018-Jun-19 16:29N 34°09' W 119°21'1 2.6
2018-Jun-19 15:59N 34°08' W 119°22'0 0.0
2018-Jun-19 15:25N 34°08' W 119°22'0 0.0
2018-Jun-19 15:00N 34°08' W 119°22'0 0.0
2018-Jun-19 14:29N 34°08' W 119°22'0 0.0
2018-Jun-19 13:59N 34°08' W 119°22'0 0.1
2018-Jun-19 13:30N 34°08' W 119°22'612.0
2018-Jun-19 13:00N 34°08' W 119°15'2 4.3
2018-Jun-19 12:30N 34°09' W 119°13'0 0.0
2018-Jun-19 11:59N 34°09' W 119°13'0 0.0
2018-Jun-19 01:34N 34°09' W 119°13'0 0.0
2018-Jun-18 19:31N 34°09' W 119°13'0 0.1
2018-Jun-18 19:25N 34°09' W 119°13'0 0.0
2018-Jun-18 18:58N 34°09' W 119°13'0 0.0
2018-Jun-17 18:22N 34°09' W 119°13'0 0.0
2018-Jun-17 16:13N 34°09' W 119°13'0 0.0
2018-Jun-17 09:58N 34°09' W 119°13'0 0.0
2018-Jun-17 09:28N 34°09' W 119°13'0 0.0
2018-Jun-16 15:46N 34°09' W 119°13'0 0.0
2018-Jun-16 15:28N 34°09' W 119°13'0 0.0
2018-Jun-16 14:52N 34°09' W 119°13'0 0.0
2018-Jun-16 14:22N 34°09' W 119°13'0 0.0
2018-Jun-16 13:52N 34°09' W 119°13'0 0.0
2018-Jun-16 13:04N 34°09' W 119°13'0 0.0
2018-Jun-16 12:55N 34°09' W 119°13'0 0.0
2018-Jun-16 12:28N 34°09' W 119°13'0 0.0
2018-Jun-16 11:22N 34°09' W 119°13'0 0.0
2018-Jun-16 10:59N 34°09' W 119°13'3 6.9
2018-Jun-16 10:30N 34°06' W 119°13'5 9.1
2018-Jun-16 09:56N 34°01' W 119°13'3 8.2
2018-Jun-16 09:30N 33°57' W 119°12'4 8.0
2018-Jun-16 09:00N 33°54' W 119°09'4 8.0
2018-Jun-16 08:29N 33°51' W 119°05'4 8.2
2018-Jun-16 07:57N 33°47' W 119°02'4 8.8
2018-Jun-16 07:30N 33°44' W 118°59'4 8.8
2018-Jun-16 07:00N 33°41' W 118°56'5 8.7
2018-Jun-16 06:29N 33°37' W 118°53'4 9.1
2018-Jun-16 06:00N 33°34' W 118°49'4 8.9
2018-Jun-16 05:31N 33°31' W 118°46'4 8.8
2018-Jun-16 05:00N 33°27' W 118°43'5 9.2
2018-Jun-16 04:29N 33°23' W 118°39'5 9.2
2018-Jun-16 03:59N 33°20' W 118°36'5 9.0
2018-Jun-16 03:24N 33°16' W 118°32'4 9.1
2018-Jun-16 03:00N 33°13' W 118°29'3 6.3
2018-Jun-16 02:29N 33°10' W 118°27'0 0.0
2018-Jun-16 02:00N 33°10' W 118°27'0 0.0
2018-Jun-16 01:28N 33°10' W 118°27'1 1.7
2018-Jun-16 00:54N 33°10' W 118°25'4 9.7
2018-Jun-16 00:29N 33°10' W 118°21'510.4
2018-Jun-15 23:59N 33°10' W 118°14'2 3.1
2018-Jun-15 23:30N 33°10' W 118°13'0 0.0
2018-Jun-15 22:59N 33°10' W 118°13'0 0.0
2018-Jun-15 22:30N 33°10' W 118°13'2 3.2
2018-Jun-15 21:54N 33°11' W 118°15'4 9.8
2018-Jun-15 21:31N 33°11' W 118°20'611.6
2018-Jun-15 21:00N 33°12' W 118°26'510.2
2018-Jun-15 20:30N 33°13' W 118°32'5 9.8
2018-Jun-15 20:00N 33°14' W 118°38'1 2.3
2018-Jun-15 19:24N 33°13' W 118°37'710.7
2018-Jun-15 18:46N 33°13' W 118°29'310.0
2018-Jun-15 18:30N 33°12' W 118°26'1 2.1
2018-Jun-15 18:00N 33°12' W 118°25'0 0.0
2018-Jun-15 17:25N 33°12' W 118°25'0 0.0
2018-Jun-15 16:59N 33°12' W 118°25'2 4.9
2018-Jun-15 16:29N 33°13' W 118°28'511.1
2018-Jun-15 16:00N 33°14' W 118°34'5 9.8
2018-Jun-15 15:30N 33°15' W 118°40'0 0.6
2018-Jun-15 14:57N 33°15' W 118°40'0 0.0
2018-Jun-15 14:27N 33°14' W 118°40'0 0.0
2018-Jun-15 13:57N 33°15' W 118°40'0 0.0
2018-Jun-15 13:30N 33°14' W 118°40'1 1.4
2018-Jun-15 12:56N 33°14' W 118°39'1 2.2
2018-Jun-15 12:31N 33°15' W 118°40'2 3.3
2018-Jun-15 12:00N 33°14' W 118°38'2 4.4
2018-Jun-15 11:29N 33°14' W 118°35'2 4.7
2018-Jun-15 10:58N 33°13' W 118°33'1 2.2
2018-Jun-15 10:29N 33°13' W 118°32'1 2.6
2018-Jun-15 10:00N 33°13' W 118°30'2 4.3
2018-Jun-15 09:30N 33°13' W 118°27'2 3.8
2018-Jun-15 09:00N 33°13' W 118°25'3 5.1
2018-Jun-15 08:29N 33°13' W 118°28'3 4.9
2018-Jun-15 07:49N 33°13' W 118°32'2 4.7
2018-Jun-15 07:30N 33°13' W 118°34'2 4.8
2018-Jun-15 07:00N 33°13' W 118°37'3 5.0
2018-Jun-15 06:28N 33°14' W 118°40'2 4.8
2018-Jun-15 06:00N 33°15' W 118°42'3 4.1
2018-Jun-15 05:14N 33°14' W 118°39'2 4.4
2018-Jun-15 04:46N 33°14' W 118°37'1 4.3
2018-Jun-15 04:30N 33°13' W 118°35'2 4.2
2018-Jun-15 04:00N 33°12' W 118°33'3 4.6
2018-Jun-15 03:27N 33°11' W 118°30'2 5.1
2018-Jun-15 03:00N 33°10' W 118°28'2 4.2
2018-Jun-15 02:30N 33°09' W 118°26'2 4.2
2018-Jun-15 02:00N 33°08' W 118°23'2 4.1
2018-Jun-15 01:30N 33°08' W 118°21'0 0.7
2018-Jun-15 01:00N 33°08' W 118°21'1 1.6
2018-Jun-15 00:30N 33°08' W 118°20'0 0.8
2018-Jun-15 00:00N 33°08' W 118°20'4 7.6
2018-Jun-14 23:30N 33°10' W 118°24'611.7
2018-Jun-14 23:00N 33°12' W 118°30'5 9.3
2018-Jun-14 22:31N 33°14' W 118°35'3 6.4
2018-Jun-14 22:01N 33°15' W 118°39'4 7.2
2018-Jun-14 21:28N 33°13' W 118°35'610.7
2018-Jun-14 20:56N 33°11' W 118°29'4 8.1
2018-Jun-14 20:30N 33°11' W 118°24'1 2.0
2018-Jun-14 19:59N 33°10' W 118°23'0 0.0
2018-Jun-14 19:30N 33°10' W 118°23'0 0.0
2018-Jun-14 19:01N 33°10' W 118°23'1 2.7
2018-Jun-14 18:29N 33°11' W 118°25'3 6.1
2018-Jun-14 18:00N 33°12' W 118°28'510.5
2018-Jun-14 17:30N 33°14' W 118°34'2 4.0
2018-Jun-14 17:01N 33°14' W 118°36'2 5.0
2018-Jun-14 16:30N 33°13' W 118°33'4 7.6
2018-Jun-14 16:00N 33°12' W 118°29'0 0.9
2018-Jun-14 15:30N 33°12' W 118°29'0 0.0
2018-Jun-14 15:00N 33°12' W 118°29'0 0.0
2018-Jun-14 14:30N 33°12' W 118°29'0 0.0
2018-Jun-14 14:00N 33°12' W 118°29'0 0.0
2018-Jun-14 13:31N 33°12' W 118°29'1 1.7
2018-Jun-14 13:00N 33°12' W 118°30'2 4.0
2018-Jun-14 12:29N 33°12' W 118°32'2 5.0
2018-Jun-14 12:00N 33°11' W 118°29'2 4.6
2018-Jun-14 11:30N 33°11' W 118°27'2 4.4
2018-Jun-14 11:00N 33°11' W 118°24'2 4.3
2018-Jun-14 10:29N 33°11' W 118°21'1 2.1
2018-Jun-14 10:00N 33°11' W 118°22'3 5.3
2018-Jun-14 09:30N 33°11' W 118°25'3 5.2
2018-Jun-14 09:00N 33°11' W 118°29'2 4.8
2018-Jun-14 08:30N 33°11' W 118°31'2 4.7
2018-Jun-14 08:00N 33°11' W 118°34'2 4.6
2018-Jun-14 07:30N 33°11' W 118°37'2 4.5
2018-Jun-14 07:00N 33°11' W 118°40'1 2.2
2018-Jun-14 06:30N 33°12' W 118°41'3 5.1
2018-Jun-14 06:00N 33°12' W 118°38'2 4.6
2018-Jun-14 05:30N 33°12' W 118°35'2 4.5
2018-Jun-14 05:00N 33°12' W 118°33'2 3.0
2018-Jun-14 04:30N 33°12' W 118°31'0 0.0
2018-Jun-14 04:00N 33°12' W 118°31'0 0.0
2018-Jun-14 03:30N 33°12' W 118°31'0 0.0
2018-Jun-14 03:00N 33°12' W 118°31'0 0.0
2018-Jun-14 02:31N 33°12' W 118°31'4 8.3
2018-Jun-14 02:00N 33°13' W 118°26'2 4.5
2018-Jun-14 01:30N 33°13' W 118°23'0 0.0
2018-Jun-14 01:00N 33°13' W 118°23'4 7.8
2018-Jun-14 00:30N 33°16' W 118°20'4 7.5
2018-Jun-14 00:00N 33°19' W 118°18'0 0.0
2018-Jun-13 23:30N 33°19' W 118°18'0 0.0
2018-Jun-13 22:59N 33°19' W 118°18'4 8.2
2018-Jun-13 22:31N 33°15' W 118°18'4 8.4
2018-Jun-13 22:00N 33°11' W 118°20'0 0.0
2018-Jun-13 21:30N 33°11' W 118°20'0 0.0
2018-Jun-13 21:00N 33°11' W 118°20'0 0.0
2018-Jun-13 20:30N 33°11' W 118°20'0 0.0
2018-Jun-13 20:00N 33°11' W 118°20'0 0.7
2018-Jun-13 19:30N 33°11' W 118°19'0 0.1
2018-Jun-13 19:00N 33°11' W 118°19'0 0.0
2018-Jun-13 18:30N 33°11' W 118°19'1 2.5
2018-Jun-13 18:00N 33°10' W 118°18'0 0.5
2018-Jun-13 17:30N 33°10' W 118°18'1 0.8
2018-Jun-13 16:37N 33°10' W 118°17'1 6.5
2018-Jun-13 16:26N 33°10' W 118°15'3 5.8
2018-Jun-13 15:59N 33°09' W 118°12'1 1.7
2018-Jun-13 15:31N 33°09' W 118°11'0 0.0
2018-Jun-13 15:01N 33°09' W 118°11'0 0.0
2018-Jun-13 14:31N 33°09' W 118°11'0 0.0
2018-Jun-13 14:00N 33°09' W 118°11'0 0.0
2018-Jun-13 13:30N 33°09' W 118°11'0 0.8
2018-Jun-13 13:00N 33°10' W 118°11'2 4.3
2018-Jun-13 12:31N 33°12' W 118°12'2 4.7
2018-Jun-13 12:00N 33°12' W 118°14'2 4.6
2018-Jun-13 11:30N 33°13' W 118°17'2 4.7
2018-Jun-13 11:00N 33°14' W 118°19'2 4.8
2018-Jun-13 10:30N 33°15' W 118°22'3 6.3
2018-Jun-13 09:59N 33°16' W 118°26'3 6.8
2018-Jun-13 09:31N 33°17' W 118°29'3 6.7
2018-Jun-13 09:00N 33°19' W 118°33'3 6.4
2018-Jun-13 08:30N 33°20' W 118°36'3 6.6
2018-Jun-13 08:00N 33°23' W 118°39'4 7.3
2018-Jun-13 07:29N 33°26' W 118°42'4 8.7
2018-Jun-13 07:00N 33°29' W 118°45'611.7
2018-Jun-13 06:30N 33°34' W 118°49'611.8
2018-Jun-13 05:59N 33°39' W 118°54'612.0
2018-Jun-13 05:30N 33°43' W 118°58'612.0
2018-Jun-13 05:00N 33°48' W 119°03'611.9
2018-Jun-13 04:31N 33°52' W 119°07'612.3
2018-Jun-13 04:00N 33°57' W 119°12'712.5
2018-Jun-13 03:27N 34°04' W 119°13'510.4
2018-Jun-13 03:00N 34°09' W 119°13'0 0.9
2018-Jun-13 02:30N 34°09' W 119°13'0 0.0
2018-Jun-13 01:58N 34°09' W 119°13'0 0.0
2018-Jun-13 01:28N 34°09' W 119°13'0 0.0
2018-Jun-13 00:58N 34°09' W 119°13'0 0.0
2018-Jun-13 00:25N 34°09' W 119°13'0 0.0
2018-Jun-12 23:58N 34°09' W 119°13'0 0.0
2018-Jun-12 23:25N 34°09' W 119°13'0 0.0
2018-Jun-12 22:58N 34°09' W 119°13'0 0.0
2018-Jun-12 22:28N 34°09' W 119°13'0 0.0
2018-Jun-12 21:52N 34°09' W 119°13'0 0.0
2018-Jun-12 21:28N 34°09' W 119°13'0 0.0
2018-Jun-12 20:58N 34°09' W 119°13'0 0.0
2018-Jun-12 20:22N 34°09' W 119°13'0 0.0
2018-Jun-12 19:58N 34°09' W 119°13'0 0.0
2018-Jun-12 19:25N 34°09' W 119°13'0 0.0
2018-Jun-12 18:58N 34°09' W 119°13'0 0.0
2018-Jun-12 18:04N 34°09' W 119°13'0 0.0
2018-Jun-12 17:43N 34°09' W 119°13'0 0.0
2018-Jun-12 17:28N 34°09' W 119°13'0 0.0
2018-Jun-12 16:58N 34°09' W 119°13'0 0.0
2018-Jun-12 14:46N 34°09' W 119°13'0 0.0
2018-Jun-12 13:13N 34°09' W 119°13'0 0.0
2018-Jun-12 12:43N 34°09' W 119°13'0 0.0
2018-Jun-12 11:55N 34°09' W 119°13'0 0.0
2018-Jun-12 11:04N 34°09' W 119°13'0 0.0
2018-Jun-12 10:46N 34°09' W 119°13'0 0.0
2018-Jun-12 10:28N 34°09' W 119°13'0 0.0
2018-Jun-12 09:52N 34°09' W 119°13'0 0.0
2018-Jun-12 08:43N 34°09' W 119°13'0 0.0
2018-Jun-12 08:28N 34°09' W 119°13'0 0.0
2018-Jun-12 07:04N 34°09' W 119°13'0 0.0
2018-Jun-12 06:58N 34°09' W 119°13'0 0.0
2018-Jun-12 06:28N 34°09' W 119°13'0 0.0
2018-Jun-12 05:52N 34°09' W 119°13'0 0.0
2018-Jun-12 05:28N 34°09' W 119°13'0 0.0
2018-Jun-12 04:52N 34°09' W 119°13'0 0.0
2018-Jun-12 03:19N 34°09' W 119°13'0 0.0
2018-Jun-12 00:19N 34°09' W 119°13'0 0.0
2018-Jun-11 23:58N 34°09' W 119°13'0 0.0
2018-Jun-11 23:28N 34°09' W 119°13'0 0.0
2018-Jun-11 22:58N 34°09' W 119°13'0 0.0
2018-Jun-11 22:28N 34°09' W 119°13'0 0.0
2018-Jun-11 21:58N 34°09' W 119°13'  

Dump ship's entire track history